Terminal Aerodrome Forecast
Issued by NWS Amarillo, TX

Home | Current Version | Previous Version | Text Only | Print | Product List | Glossary On
Versions: 1 2 3 4 5 6 7 8 9 10 11 12 13 14
566
FTUS44 KAMA 280033 AAA
TAFAMA
TAF AMD
KAMA 280033Z 2801/2824 06008KT P6SM SCT200
     FM280500 01018G28KT P6SM SCT060 BKN150
     FM281200 35016KT P6SM SKC
     FM281800 01012KT P6SM FEW200=

USA.gov is the U.S. government's official web portal to all federal, state and local government web resources and services.